Airfield :
LOGIN :

Register | Disclaimer

   EN    FR    IT 

 










Legend :    VFR   Marginal VFR   IFR   Intensive IFR   Very Intensive IFR
Visi :
Ceiling :
>= 8 km
>= 3000ft
5 to 8 km
1000 to 3000 ft
1500m to 5 km
500 to 1000 ft
800 to 1500m
200 to 500 ft
< 800m
< 200 ft
Symbols :   Thunderstorms  Fog  Heavy snow  Heavy precipitations  Wind > 20 kt
SIGMETs :     Misc.  Thunderstorms  Icing  Turbulence  Mountain Waves  Volcanic Ashes







- Airport Elevation : 913 ft
- Download approach charts


LFSX - Luxeuil

CURRENT METAR :
  • 190300Z AUTO 13003KT 090V170 5000 -RA BR OVC015/// ///TCU 03/02 Q1020

EXPIRED METARs :
  • 190230Z AUTO 21004KT 180V240 5000 RA BR OVC017/// ///TCU 03/02 Q1020
  • 190200Z AUTO VRB03KT 6000 -RA FEW012/// OVC021/// ///TCU 03/02 Q1021
  • 190130Z AUTO VRB01KT 3700 -RA BR BKN010 OVC018 03/02 Q1021
  • 190100Z AUTO VRB02KT 4900 -RA BR BKN012 OVC021 03/02 Q1021
  • 190030Z AUTO VRB03KT 9000 -RA OVC023 03/02 Q1021

TAF AMD TAF LFSX
Valid from the 18 at 17:00 until the 19 at 15:00 UTC


181630Z 1817/1915 23006KT 9999 BKN035
FM182230 22008KT 4500 -RASN BKN020
PROB30
TEMPO 1902/1908 2000 -SN SCT008 OVC012
FM191130 29007KT 9999 SCT025 BKN040
No reported NOTAMs for that airfield.



MET'MAP, your aeronautical weather chart ! - Copyright ORBIFLY December 2007 - Disclaimer

ORBIFLY MET'MAP TEAM :

Programming & Development : Alexandra Zaïnal
Concept & Development : Baudouin d'Aumeries
Co-Development & Prog : Marc-Olivier Méhu
Technical & hardware support : Manuel Goepfert

Contact : metmap@orbifly.com




SOURCES & CREDITS :

   NOAA